sensor_id;sensor_type;location;lat;lon;timestamp;temperature;humidity
4366;DHT22;2196;47.422;9.656;2022-10-16T00:01:16;14.50;99.90
4366;DHT22;2196;47.422;9.656;2022-10-16T00:03:46;14.60;99.90
4366;DHT22;2196;47.422;9.656;2022-10-16T00:06:15;14.60;99.90
4366;DHT22;2196;47.422;9.656;2022-10-16T00:08:45;14.60;99.90
4366;DHT22;2196;47.422;9.656;2022-10-16T00:11:14;14.60;99.90
4366;DHT22;2196;47.422;9.656;2022-10-16T00:13:44;14.60;99.90
4366;DHT22;2196;47.422;9.656;2022-10-16T00:16:12;14.70;99.90
4366;DHT22;2196;47.422;9.656;2022-10-16T00:18:42;14.70;99.90
4366;DHT22;2196;47.422;9.656;2022-10-16T00:21:12;14.70;99.90
4366;DHT22;2196;47.422;9.656;2022-10-16T00:23:41;14.70;99.90
4366;DHT22;2196;47.422;9.656;2022-10-16T00:26:10;14.70;99.90
4366;DHT22;2196;47.422;9.656;2022-10-16T00:28:37;14.60;99.90
4366;DHT22;2196;47.422;9.656;2022-10-16T00:31:05;14.50;99.90
4366;DHT22;2196;47.422;9.656;2022-10-16T00:33:33;14.50;99.90
4366;DHT22;2196;47.422;9.656;2022-10-16T00:36:00;14.40;99.90
4366;DHT22;2196;47.422;9.656;2022-10-16T00:38:29;14.30;99.90
4366;DHT22;2196;47.422;9.656;2022-10-16T00:40:56;14.30;99.90
4366;DHT22;2196;47.422;9.656;2022-10-16T00:43:38;14.40;99.90
4366;DHT22;2196;47.422;9.656;2022-10-16T00:46:12;14.50;99.90
4366;DHT22;2196;47.422;9.656;2022-10-16T00:48:40;14.50;99.90
4366;DHT22;2196;47.422;9.656;2022-10-16T00:51:10;14.50;99.90
4366;DHT22;2196;47.422;9.656;2022-10-16T00:53:39;14.50;99.90
4366;DHT22;2196;47.422;9.656;2022-10-16T00:56:06;14.40;99.90
4366;DHT22;2196;47.422;9.656;2022-10-16T00:58:33;14.50;99.90
4366;DHT22;2196;47.422;9.656;2022-10-16T01:01:00;14.50;99.90
4366;DHT22;2196;47.422;9.656;2022-10-16T01:03:29;14.60;99.90
4366;DHT22;2196;47.422;9.656;2022-10-16T01:06:05;14.60;99.90
4366;DHT22;2196;47.422;9.656;2022-10-16T01:08:44;14.70;99.90
4366;DHT22;2196;47.422;9.656;2022-10-16T01:11:19;14.70;99.90
4366;DHT22;2196;47.422;9.656;2022-10-16T01:13:53;14.70;99.90
4366;DHT22;2196;47.422;9.656;2022-10-16T01:16:28;14.60;99.90
4366;DHT22;2196;47.422;9.656;2022-10-16T01:19:02;14.60;99.90
4366;DHT22;2196;47.422;9.656;2022-10-16T01:21:36;14.60;99.90
4366;DHT22;2196;47.422;9.656;2022-10-16T01:24:09;14.60;99.90
4366;DHT22;2196;47.422;9.656;2022-10-16T01:27:10;14.70;99.90
4366;DHT22;2196;47.422;9.656;2022-10-16T01:29:47;14.80;99.90
4366;DHT22;2196;47.422;9.656;2022-10-16T01:32:19;14.70;99.90
4366;DHT22;2196;47.422;9.656;2022-10-16T01:34:50;14.80;99.90
4366;DHT22;2196;47.422;9.656;2022-10-16T01:37:29;14.80;99.90
4366;DHT22;2196;47.422;9.656;2022-10-16T01:40:00;14.70;99.90
4366;DHT22;2196;47.422;9.656;2022-10-16T01:42:35;14.70;99.90
4366;DHT22;2196;47.422;9.656;2022-10-16T01:45:05;14.60;99.90
4366;DHT22;2196;47.422;9.656;2022-10-16T01:47:35;14.60;99.90
4366;DHT22;2196;47.422;9.656;2022-10-16T01:50:05;14.60;99.90
4366;DHT22;2196;47.422;9.656;2022-10-16T01:52:37;14.60;99.90
4366;DHT22;2196;47.422;9.656;2022-10-16T01:55:08;14.60;99.90
4366;DHT22;2196;47.422;9.656;2022-10-16T01:57:41;14.60;99.90
4366;DHT22;2196;47.422;9.656;2022-10-16T02:00:12;14.60;99.90
4366;DHT22;2196;47.422;9.656;2022-10-16T02:02:44;14.60;99.90
4366;DHT22;2196;47.422;9.656;2022-10-16T02:05:17;14.50;99.90
4366;DHT22;2196;47.422;9.656;2022-10-16T02:07:46;14.50;99.90
4366;DHT22;2196;47.422;9.656;2022-10-16T02:10:14;14.50;99.90
4366;DHT22;2196;47.422;9.656;2022-10-16T02:12:47;14.50;99.90
4366;DHT22;2196;47.422;9.656;2022-10-16T02:15:17;14.50;99.90
4366;DHT22;2196;47.422;9.656;2022-10-16T02:17:44;14.40;99.90
4366;DHT22;2196;47.422;9.656;2022-10-16T02:20:11;14.50;99.90
4366;DHT22;2196;47.422;9.656;2022-10-16T02:22:41;14.50;99.90
4366;DHT22;2196;47.422;9.656;2022-10-16T02:25:11;14.60;99.90
4366;DHT22;2196;47.422;9.656;2022-10-16T02:27:45;14.60;99.90
4366;DHT22;2196;47.422;9.656;2022-10-16T02:30:21;14.60;99.90
4366;DHT22;2196;47.422;9.656;2022-10-16T02:32:51;14.70;99.90
4366;DHT22;2196;47.422;9.656;2022-10-16T02:35:21;14.60;99.90
4366;DHT22;2196;47.422;9.656;2022-10-16T02:37:50;14.60;99.90
4366;DHT22;2196;47.422;9.656;2022-10-16T02:40:18;14.50;99.90
4366;DHT22;2196;47.422;9.656;2022-10-16T02:42:50;14.50;99.90
4366;DHT22;2196;47.422;9.656;2022-10-16T02:45:18;14.50;99.90
4366;DHT22;2196;47.422;9.656;2022-10-16T02:47:45;14.50;99.90
4366;DHT22;2196;47.422;9.656;2022-10-16T02:50:12;14.50;99.90
4366;DHT22;2196;47.422;9.656;2022-10-16T02:52:39;14.60;99.90
4366;DHT22;2196;47.422;9.656;2022-10-16T02:55:07;14.60;99.90
4366;DHT22;2196;47.422;9.656;2022-10-16T02:57:34;14.60;99.90
4366;DHT22;2196;47.422;9.656;2022-10-16T03:00:05;14.60;99.90
4366;DHT22;2196;47.422;9.656;2022-10-16T03:02:33;14.60;99.90
4366;DHT22;2196;47.422;9.656;2022-10-16T03:05:00;14.60;99.90
4366;DHT22;2196;47.422;9.656;2022-10-16T03:07:27;14.50;99.90
4366;DHT22;2196;47.422;9.656;2022-10-16T03:09:54;14.50;99.90
4366;DHT22;2196;47.422;9.656;2022-10-16T03:12:21;14.40;99.90
4366;DHT22;2196;47.422;9.656;2022-10-16T03:14:48;14.30;99.90
4366;DHT22;2196;47.422;9.656;2022-10-16T03:17:16;14.30;99.90
4366;DHT22;2196;47.422;9.656;2022-10-16T03:19:43;14.30;99.90
4366;DHT22;2196;47.422;9.656;2022-10-16T03:22:10;14.20;99.90
4366;DHT22;2196;47.422;9.656;2022-10-16T03:24:37;14.20;99.90
4366;DHT22;2196;47.422;9.656;2022-10-16T03:27:04;14.10;99.90
4366;DHT22;2196;47.422;9.656;2022-10-16T03:29:32;14.00;99.90
4366;DHT22;2196;47.422;9.656;2022-10-16T03:31:59;14.00;99.90
4366;DHT22;2196;47.422;9.656;2022-10-16T03:34:28;13.90;99.90
4366;DHT22;2196;47.422;9.656;2022-10-16T03:36:55;13.90;99.90
4366;DHT22;2196;47.422;9.656;2022-10-16T03:39:22;13.90;99.90
4366;DHT22;2196;47.422;9.656;2022-10-16T03:41:49;13.90;99.90
4366;DHT22;2196;47.422;9.656;2022-10-16T03:44:16;14.00;99.90
4366;DHT22;2196;47.422;9.656;2022-10-16T03:46:43;14.00;99.90
4366;DHT22;2196;47.422;9.656;2022-10-16T03:49:10;14.10;99.90
4366;DHT22;2196;47.422;9.656;2022-10-16T03:51:38;14.20;99.90
4366;DHT22;2196;47.422;9.656;2022-10-16T03:54:05;14.30;99.90
4366;DHT22;2196;47.422;9.656;2022-10-16T03:56:32;14.30;99.90
4366;DHT22;2196;47.422;9.656;2022-10-16T03:58:59;14.20;99.90
4366;DHT22;2196;47.422;9.656;2022-10-16T04:01:26;14.20;99.90
4366;DHT22;2196;47.422;9.656;2022-10-16T04:03:53;14.10;99.90
4366;DHT22;2196;47.422;9.656;2022-10-16T04:06:20;14.10;99.90
4366;DHT22;2196;47.422;9.656;2022-10-16T04:08:49;14.10;99.90
4366;DHT22;2196;47.422;9.656;2022-10-16T04:11:16;14.20;99.90
4366;DHT22;2196;47.422;9.656;2022-10-16T04:13:44;14.10;99.90
4366;DHT22;2196;47.422;9.656;2022-10-16T04:16:11;14.10;99.90
4366;DHT22;2196;47.422;9.656;2022-10-16T04:18:38;14.10;99.90
4366;DHT22;2196;47.422;9.656;2022-10-16T04:21:06;14.10;99.90
4366;DHT22;2196;47.422;9.656;2022-10-16T04:23:33;14.00;99.90
4366;DHT22;2196;47.422;9.656;2022-10-16T04:26:02;13.90;99.90
4366;DHT22;2196;47.422;9.656;2022-10-16T04:28:29;13.90;99.90
4366;DHT22;2196;47.422;9.656;2022-10-16T04:30:56;13.90;99.90
4366;DHT22;2196;47.422;9.656;2022-10-16T04:33:23;13.80;99.90
4366;DHT22;2196;47.422;9.656;2022-10-16T04:35:56;13.80;99.90
4366;DHT22;2196;47.422;9.656;2022-10-16T04:38:23;13.80;99.90
4366;DHT22;2196;47.422;9.656;2022-10-16T04:40:50;13.80;99.90
4366;DHT22;2196;47.422;9.656;2022-10-16T04:43:19;13.90;99.90
4366;DHT22;2196;47.422;9.656;2022-10-16T04:45:46;13.90;99.90
4366;DHT22;2196;47.422;9.656;2022-10-16T04:48:16;13.90;99.90
4366;DHT22;2196;47.422;9.656;2022-10-16T04:50:43;13.90;99.90
4366;DHT22;2196;47.422;9.656;2022-10-16T04:53:10;13.80;99.90
4366;DHT22;2196;47.422;9.656;2022-10-16T04:55:37;13.80;99.90
4366;DHT22;2196;47.422;9.656;2022-10-16T04:58:04;13.70;99.90
4366;DHT22;2196;47.422;9.656;2022-10-16T05:00:33;13.70;99.90
4366;DHT22;2196;47.422;9.656;2022-10-16T05:03:01;13.70;99.90
4366;DHT22;2196;47.422;9.656;2022-10-16T05:05:31;13.60;99.90
4366;DHT22;2196;47.422;9.656;2022-10-16T05:07:58;13.60;99.90
4366;DHT22;2196;47.422;9.656;2022-10-16T05:10:25;13.50;99.90
4366;DHT22;2196;47.422;9.656;2022-10-16T05:12:52;13.50;99.90
4366;DHT22;2196;47.422;9.656;2022-10-16T05:15:20;13.50;99.90
4366;DHT22;2196;47.422;9.656;2022-10-16T05:17:52;13.40;99.90
4366;DHT22;2196;47.422;9.656;2022-10-16T05:20:19;13.40;99.90
4366;DHT22;2196;47.422;9.656;2022-10-16T05:22:46;13.50;99.90
4366;DHT22;2196;47.422;9.656;2022-10-16T05:25:13;13.50;99.90
4366;DHT22;2196;47.422;9.656;2022-10-16T05:27:40;13.60;99.90
4366;DHT22;2196;47.422;9.656;2022-10-16T05:30:08;13.60;99.90
4366;DHT22;2196;47.422;9.656;2022-10-16T05:32:36;13.50;99.90
4366;DHT22;2196;47.422;9.656;2022-10-16T05:35:05;13.50;99.90
4366;DHT22;2196;47.422;9.656;2022-10-16T05:37:32;13.50;99.90
4366;DHT22;2196;47.422;9.656;2022-10-16T05:39:59;13.40;99.90
4366;DHT22;2196;47.422;9.656;2022-10-16T05:42:32;13.40;99.90
4366;DHT22;2196;47.422;9.656;2022-10-16T05:44:59;13.40;99.90
4366;DHT22;2196;47.422;9.656;2022-10-16T05:47:26;13.30;99.90
4366;DHT22;2196;47.422;9.656;2022-10-16T05:49:53;13.30;99.90
4366;DHT22;2196;47.422;9.656;2022-10-16T05:52:22;13.30;99.90
4366;DHT22;2196;47.422;9.656;2022-10-16T05:54:50;13.30;99.90
4366;DHT22;2196;47.422;9.656;2022-10-16T05:57:17;13.30;99.90
4366;DHT22;2196;47.422;9.656;2022-10-16T05:59:44;13.30;99.90
4366;DHT22;2196;47.422;9.656;2022-10-16T06:02:12;13.30;99.90
4366;DHT22;2196;47.422;9.656;2022-10-16T06:04:40;13.30;99.90
4366;DHT22;2196;47.422;9.656;2022-10-16T06:07:07;13.40;99.90
4366;DHT22;2196;47.422;9.656;2022-10-16T06:09:35;13.40;99.90
4366;DHT22;2196;47.422;9.656;2022-10-16T06:12:02;13.50;99.90
4366;DHT22;2196;47.422;9.656;2022-10-16T06:14:29;13.60;99.90
4366;DHT22;2196;47.422;9.656;2022-10-16T06:16:56;13.70;99.90
4366;DHT22;2196;47.422;9.656;2022-10-16T06:19:24;13.70;99.90
4366;DHT22;2196;47.422;9.656;2022-10-16T06:21:51;13.70;99.90
4366;DHT22;2196;47.422;9.656;2022-10-16T06:24:18;13.70;99.90
4366;DHT22;2196;47.422;9.656;2022-10-16T06:26:47;13.70;99.90
4366;DHT22;2196;47.422;9.656;2022-10-16T06:29:14;13.80;99.90
4366;DHT22;2196;47.422;9.656;2022-10-16T06:31:47;13.80;99.90
4366;DHT22;2196;47.422;9.656;2022-10-16T06:34:15;13.80;99.90
4366;DHT22;2196;47.422;9.656;2022-10-16T06:36:45;13.80;99.90
4366;DHT22;2196;47.422;9.656;2022-10-16T06:39:12;13.90;99.90
4366;DHT22;2196;47.422;9.656;2022-10-16T06:41:39;13.90;99.90
4366;DHT22;2196;47.422;9.656;2022-10-16T06:44:08;13.80;99.90
4366;DHT22;2196;47.422;9.656;2022-10-16T06:46:35;13.90;99.90
4366;DHT22;2196;47.422;9.656;2022-10-16T06:49:02;13.90;99.90
4366;DHT22;2196;47.422;9.656;2022-10-16T06:51:29;14.00;99.90
4366;DHT22;2196;47.422;9.656;2022-10-16T06:53:59;14.10;99.90
4366;DHT22;2196;47.422;9.656;2022-10-16T06:56:27;14.20;99.90
4366;DHT22;2196;47.422;9.656;2022-10-16T06:58:55;14.30;99.90
4366;DHT22;2196;47.422;9.656;2022-10-16T07:01:24;14.50;99.90
4366;DHT22;2196;47.422;9.656;2022-10-16T07:03:52;14.60;99.90
4366;DHT22;2196;47.422;9.656;2022-10-16T07:06:22;14.80;99.90
4366;DHT22;2196;47.422;9.656;2022-10-16T07:08:49;14.80;99.90
4366;DHT22;2196;47.422;9.656;2022-10-16T07:11:19;15.10;99.90
4366;DHT22;2196;47.422;9.656;2022-10-16T07:13:48;15.30;99.90
4366;DHT22;2196;47.422;9.656;2022-10-16T07:16:17;15.60;99.90
4366;DHT22;2196;47.422;9.656;2022-10-16T07:18:47;15.80;99.90
4366;DHT22;2196;47.422;9.656;2022-10-16T07:21:16;16.00;99.90
4366;DHT22;2196;47.422;9.656;2022-10-16T07:23:45;16.20;99.90
4366;DHT22;2196;47.422;9.656;2022-10-16T07:26:12;16.40;99.90
4366;DHT22;2196;47.422;9.656;2022-10-16T07:28:43;16.50;99.90
4366;DHT22;2196;47.422;9.656;2022-10-16T07:31:12;16.60;99.90
4366;DHT22;2196;47.422;9.656;2022-10-16T07:33:43;16.80;99.90
4366;DHT22;2196;47.422;9.656;2022-10-16T07:36:14;16.90;99.90
4366;DHT22;2196;47.422;9.656;2022-10-16T07:38:46;17.10;99.90
4366;DHT22;2196;47.422;9.656;2022-10-16T07:41:15;17.30;99.90
4366;DHT22;2196;47.422;9.656;2022-10-16T07:43:45;17.40;99.90
4366;DHT22;2196;47.422;9.656;2022-10-16T07:46:13;17.40;99.90
4366;DHT22;2196;47.422;9.656;2022-10-16T07:48:40;17.60;99.90
4366;DHT22;2196;47.422;9.656;2022-10-16T07:51:13;17.60;99.90
4366;DHT22;2196;47.422;9.656;2022-10-16T07:53:40;17.50;99.90
4366;DHT22;2196;47.422;9.656;2022-10-16T07:56:11;17.40;99.90
4366;DHT22;2196;47.422;9.656;2022-10-16T07:58:38;17.30;99.90
4366;DHT22;2196;47.422;9.656;2022-10-16T08:01:10;17.30;99.90
4366;DHT22;2196;47.422;9.656;2022-10-16T08:03:43;17.40;99.90
4366;DHT22;2196;47.422;9.656;2022-10-16T08:06:11;17.40;99.90
4366;DHT22;2196;47.422;9.656;2022-10-16T08:08:42;17.40;99.90
4366;DHT22;2196;47.422;9.656;2022-10-16T08:11:10;17.40;99.90
4366;DHT22;2196;47.422;9.656;2022-10-16T08:13:37;17.50;99.90
4366;DHT22;2196;47.422;9.656;2022-10-16T08:16:05;17.60;99.90
4366;DHT22;2196;47.422;9.656;2022-10-16T08:18:34;17.70;99.90
4366;DHT22;2196;47.422;9.656;2022-10-16T08:21:02;17.70;99.90
4366;DHT22;2196;47.422;9.656;2022-10-16T08:23:30;17.90;99.90
4366;DHT22;2196;47.422;9.656;2022-10-16T08:26:04;18.10;99.90
4366;DHT22;2196;47.422;9.656;2022-10-16T08:28:31;18.30;99.90
4366;DHT22;2196;47.422;9.656;2022-10-16T08:31:05;18.40;99.90
4366;DHT22;2196;47.422;9.656;2022-10-16T08:33:33;18.50;99.90
4366;DHT22;2196;47.422;9.656;2022-10-16T08:36:02;18.50;99.90
4366;DHT22;2196;47.422;9.656;2022-10-16T08:38:30;18.50;99.90
4366;DHT22;2196;47.422;9.656;2022-10-16T08:41:08;18.40;99.90
4366;DHT22;2196;47.422;9.656;2022-10-16T08:44:00;18.40;99.90
4366;DHT22;2196;47.422;9.656;2022-10-16T08:46:38;18.80;99.90
4366;DHT22;2196;47.422;9.656;2022-10-16T08:49:09;19.90;99.90
4366;DHT22;2196;47.422;9.656;2022-10-16T08:51:37;21.00;99.90
4366;DHT22;2196;47.422;9.656;2022-10-16T08:54:06;21.90;99.90
4366;DHT22;2196;47.422;9.656;2022-10-16T08:56:37;22.60;99.90
4366;DHT22;2196;47.422;9.656;2022-10-16T08:59:09;23.30;99.90
4366;DHT22;2196;47.422;9.656;2022-10-16T09:01:40;23.60;99.90
4366;DHT22;2196;47.422;9.656;2022-10-16T09:04:31;23.90;99.90
4366;DHT22;2196;47.422;9.656;2022-10-16T09:07:11;24.50;99.90
4366;DHT22;2196;47.422;9.656;2022-10-16T09:09:56;25.20;99.90
4366;DHT22;2196;47.422;9.656;2022-10-16T09:12:33;25.40;99.90
4366;DHT22;2196;47.422;9.656;2022-10-16T09:15:07;25.40;99.90
4366;DHT22;2196;47.422;9.656;2022-10-16T09:17:45;25.80;99.90
4366;DHT22;2196;47.422;9.656;2022-10-16T09:20:25;25.70;99.90
4366;DHT22;2196;47.422;9.656;2022-10-16T09:22:59;25.90;99.90
4366;DHT22;2196;47.422;9.656;2022-10-16T09:25:28;25.40;99.90
4366;DHT22;2196;47.422;9.656;2022-10-16T09:27:57;25.40;99.90
4366;DHT22;2196;47.422;9.656;2022-10-16T09:30:27;25.30;99.90
4366;DHT22;2196;47.422;9.656;2022-10-16T09:32:55;25.30;99.90
4366;DHT22;2196;47.422;9.656;2022-10-16T09:35:31;25.20;99.90
4366;DHT22;2196;47.422;9.656;2022-10-16T09:37:58;25.60;99.90
4366;DHT22;2196;47.422;9.656;2022-10-16T09:40:28;25.60;99.90
4366;DHT22;2196;47.422;9.656;2022-10-16T09:43:02;25.80;99.90
4366;DHT22;2196;47.422;9.656;2022-10-16T09:45:30;26.00;99.90
4366;DHT22;2196;47.422;9.656;2022-10-16T09:47:57;26.30;99.90
4366;DHT22;2196;47.422;9.656;2022-10-16T09:50:25;26.50;99.90
4366;DHT22;2196;47.422;9.656;2022-10-16T09:53:08;26.70;99.90
4366;DHT22;2196;47.422;9.656;2022-10-16T09:55:48;26.90;99.90
4366;DHT22;2196;47.422;9.656;2022-10-16T09:58:17;26.70;99.90
4366;DHT22;2196;47.422;9.656;2022-10-16T10:00:49;26.50;99.90
4366;DHT22;2196;47.422;9.656;2022-10-16T10:03:33;26.60;99.90
4366;DHT22;2196;47.422;9.656;2022-10-16T10:06:06;26.30;99.90
4366;DHT22;2196;47.422;9.656;2022-10-16T10:08:33;26.60;99.90
4366;DHT22;2196;47.422;9.656;2022-10-16T10:11:00;26.50;99.90
4366;DHT22;2196;47.422;9.656;2022-10-16T10:13:29;26.30;99.90
4366;DHT22;2196;47.422;9.656;2022-10-16T10:15:56;26.50;99.90
4366;DHT22;2196;47.422;9.656;2022-10-16T10:18:23;26.70;99.90
4366;DHT22;2196;47.422;9.656;2022-10-16T10:20:58;27.00;99.90
4366;DHT22;2196;47.422;9.656;2022-10-16T10:23:27;27.20;99.90
4366;DHT22;2196;47.422;9.656;2022-10-16T10:26:01;27.40;99.90
4366;DHT22;2196;47.422;9.656;2022-10-16T10:28:52;27.40;99.90
4366;DHT22;2196;47.422;9.656;2022-10-16T10:31:25;26.70;99.90
4366;DHT22;2196;47.422;9.656;2022-10-16T10:33:58;26.20;99.90
4366;DHT22;2196;47.422;9.656;2022-10-16T10:36:29;25.70;99.90
4366;DHT22;2196;47.422;9.656;2022-10-16T10:38:59;25.40;99.90
4366;DHT22;2196;47.422;9.656;2022-10-16T10:44:26;24.80;99.90
4366;DHT22;2196;47.422;9.656;2022-10-16T10:46:57;24.60;99.90
4366;DHT22;2196;47.422;9.656;2022-10-16T10:49:39;24.20;99.90
4366;DHT22;2196;47.422;9.656;2022-10-16T10:52:25;24.20;99.90
4366;DHT22;2196;47.422;9.656;2022-10-16T10:55:05;24.20;99.90
4366;DHT22;2196;47.422;9.656;2022-10-16T10:57:38;24.10;99.90
4366;DHT22;2196;47.422;9.656;2022-10-16T11:00:18;24.10;99.90
4366;DHT22;2196;47.422;9.656;2022-10-16T11:02:53;24.20;99.90
4366;DHT22;2196;47.422;9.656;2022-10-16T11:05:35;24.20;99.90
4366;DHT22;2196;47.422;9.656;2022-10-16T11:08:09;24.20;99.90
4366;DHT22;2196;47.422;9.656;2022-10-16T11:10:44;24.00;99.90
4366;DHT22;2196;47.422;9.656;2022-10-16T11:13:20;24.00;99.90
4366;DHT22;2196;47.422;9.656;2022-10-16T11:15:53;23.90;99.90
4366;DHT22;2196;47.422;9.656;2022-10-16T11:18:27;23.80;99.90
4366;DHT22;2196;47.422;9.656;2022-10-16T11:21:00;23.80;99.90
4366;DHT22;2196;47.422;9.656;2022-10-16T11:23:31;23.80;99.90
4366;DHT22;2196;47.422;9.656;2022-10-16T11:26:04;23.90;99.90
4366;DHT22;2196;47.422;9.656;2022-10-16T11:28:35;23.80;99.90
4366;DHT22;2196;47.422;9.656;2022-10-16T11:31:15;23.70;99.90
4366;DHT22;2196;47.422;9.656;2022-10-16T11:33:49;23.60;99.90
4366;DHT22;2196;47.422;9.656;2022-10-16T11:36:21;23.60;99.90
4366;DHT22;2196;47.422;9.656;2022-10-16T11:38:54;23.50;99.90
4366;DHT22;2196;47.422;9.656;2022-10-16T11:41:28;23.50;99.90
4366;DHT22;2196;47.422;9.656;2022-10-16T11:44:11;23.60;99.90
4366;DHT22;2196;47.422;9.656;2022-10-16T11:46:50;23.60;99.90
4366;DHT22;2196;47.422;9.656;2022-10-16T11:49:20;23.70;99.90
4366;DHT22;2196;47.422;9.656;2022-10-16T11:51:55;23.50;99.90
4366;DHT22;2196;47.422;9.656;2022-10-16T11:54:31;23.50;99.90
4366;DHT22;2196;47.422;9.656;2022-10-16T11:57:05;23.40;99.90
4366;DHT22;2196;47.422;9.656;2022-10-16T11:59:41;23.50;99.90
4366;DHT22;2196;47.422;9.656;2022-10-16T12:02:26;23.50;99.90
4366;DHT22;2196;47.422;9.656;2022-10-16T12:05:05;23.40;99.90
4366;DHT22;2196;47.422;9.656;2022-10-16T12:07:37;23.40;99.90
4366;DHT22;2196;47.422;9.656;2022-10-16T12:10:20;23.40;99.90
4366;DHT22;2196;47.422;9.656;2022-10-16T12:12:48;23.40;99.90
4366;DHT22;2196;47.422;9.656;2022-10-16T12:15:21;23.40;99.90
4366;DHT22;2196;47.422;9.656;2022-10-16T12:17:51;23.40;99.90
4366;DHT22;2196;47.422;9.656;2022-10-16T12:20:27;23.40;99.90
4366;DHT22;2196;47.422;9.656;2022-10-16T12:22:58;23.30;99.90
4366;DHT22;2196;47.422;9.656;2022-10-16T12:25:28;23.30;99.90
4366;DHT22;2196;47.422;9.656;2022-10-16T12:27:58;23.30;99.90
4366;DHT22;2196;47.422;9.656;2022-10-16T12:30:27;23.20;99.90
4366;DHT22;2196;47.422;9.656;2022-10-16T12:32:57;23.30;99.90
4366;DHT22;2196;47.422;9.656;2022-10-16T12:35:27;23.20;99.90
4366;DHT22;2196;47.422;9.656;2022-10-16T12:38:05;23.20;99.90
4366;DHT22;2196;47.422;9.656;2022-10-16T12:40:35;23.10;99.90
4366;DHT22;2196;47.422;9.656;2022-10-16T12:43:34;23.10;99.90
4366;DHT22;2196;47.422;9.656;2022-10-16T12:46:04;23.00;99.90
4366;DHT22;2196;47.422;9.656;2022-10-16T12:48:32;23.10;99.90
4366;DHT22;2196;47.422;9.656;2022-10-16T12:51:10;23.20;99.90
4366;DHT22;2196;47.422;9.656;2022-10-16T12:53:38;23.20;99.90
4366;DHT22;2196;47.422;9.656;2022-10-16T12:56:12;23.20;99.90
4366;DHT22;2196;47.422;9.656;2022-10-16T13:01:48;23.00;99.90
4366;DHT22;2196;47.422;9.656;2022-10-16T13:04:40;23.00;99.90
4366;DHT22;2196;47.422;9.656;2022-10-16T13:07:27;23.00;99.90
4366;DHT22;2196;47.422;9.656;2022-10-16T13:10:08;22.90;99.90
4366;DHT22;2196;47.422;9.656;2022-10-16T13:12:50;23.00;99.90
4366;DHT22;2196;47.422;9.656;2022-10-16T13:15:37;23.00;99.90
4366;DHT22;2196;47.422;9.656;2022-10-16T13:18:13;23.00;99.90
4366;DHT22;2196;47.422;9.656;2022-10-16T13:20:54;23.00;99.90
4366;DHT22;2196;47.422;9.656;2022-10-16T13:23:26;22.90;99.90
4366;DHT22;2196;47.422;9.656;2022-10-16T13:26:05;22.80;99.90
4366;DHT22;2196;47.422;9.656;2022-10-16T13:28:37;22.80;99.90
4366;DHT22;2196;47.422;9.656;2022-10-16T13:31:05;22.70;99.90
4366;DHT22;2196;47.422;9.656;2022-10-16T13:33:39;22.80;99.90
4366;DHT22;2196;47.422;9.656;2022-10-16T13:36:19;22.70;99.90
4366;DHT22;2196;47.422;9.656;2022-10-16T13:38:46;22.70;99.90
4366;DHT22;2196;47.422;9.656;2022-10-16T13:41:15;22.70;99.90
4366;DHT22;2196;47.422;9.656;2022-10-16T13:43:48;22.70;99.90
4366;DHT22;2196;47.422;9.656;2022-10-16T13:46:18;22.60;99.90
4366;DHT22;2196;47.422;9.656;2022-10-16T13:48:55;22.40;99.90
4366;DHT22;2196;47.422;9.656;2022-10-16T13:51:24;22.40;99.90
4366;DHT22;2196;47.422;9.656;2022-10-16T13:53:51;22.30;99.90
4366;DHT22;2196;47.422;9.656;2022-10-16T13:56:20;22.20;99.90
4366;DHT22;2196;47.422;9.656;2022-10-16T13:58:58;22.30;99.90
4366;DHT22;2196;47.422;9.656;2022-10-16T14:01:28;22.20;99.90
4366;DHT22;2196;47.422;9.656;2022-10-16T14:04:02;22.20;99.90
4366;DHT22;2196;47.422;9.656;2022-10-16T14:06:32;22.20;99.90
4366;DHT22;2196;47.422;9.656;2022-10-16T14:09:03;22.70;99.90
4366;DHT22;2196;47.422;9.656;2022-10-16T14:11:32;22.50;99.90
4366;DHT22;2196;47.422;9.656;2022-10-16T14:14:00;22.40;99.90
4366;DHT22;2196;47.422;9.656;2022-10-16T14:16:29;22.50;99.90
4366;DHT22;2196;47.422;9.656;2022-10-16T14:19:00;22.40;99.90
4366;DHT22;2196;47.422;9.656;2022-10-16T14:21:28;22.30;99.90
4366;DHT22;2196;47.422;9.656;2022-10-16T14:23:56;22.30;99.90
4366;DHT22;2196;47.422;9.656;2022-10-16T14:26:25;22.30;99.90
4366;DHT22;2196;47.422;9.656;2022-10-16T14:29:11;22.20;99.90
4366;DHT22;2196;47.422;9.656;2022-10-16T14:31:39;22.20;99.90
4366;DHT22;2196;47.422;9.656;2022-10-16T14:34:24;22.30;99.90
4366;DHT22;2196;47.422;9.656;2022-10-16T14:36:53;22.30;99.90
4366;DHT22;2196;47.422;9.656;2022-10-16T14:39:22;22.20;99.90
4366;DHT22;2196;47.422;9.656;2022-10-16T14:41:52;22.20;99.90
4366;DHT22;2196;47.422;9.656;2022-10-16T14:44:20;22.20;99.90
4366;DHT22;2196;47.422;9.656;2022-10-16T14:46:48;22.20;99.90
4366;DHT22;2196;47.422;9.656;2022-10-16T14:49:16;22.20;99.90
4366;DHT22;2196;47.422;9.656;2022-10-16T14:51:44;22.20;99.90
4366;DHT22;2196;47.422;9.656;2022-10-16T14:54:11;22.30;99.90
4366;DHT22;2196;47.422;9.656;2022-10-16T14:56:46;22.30;99.90
4366;DHT22;2196;47.422;9.656;2022-10-16T14:59:16;22.30;99.90
4366;DHT22;2196;47.422;9.656;2022-10-16T15:01:44;22.30;99.90
4366;DHT22;2196;47.422;9.656;2022-10-16T15:04:13;22.30;99.90
4366;DHT22;2196;47.422;9.656;2022-10-16T15:06:41;22.30;99.90
4366;DHT22;2196;47.422;9.656;2022-10-16T15:09:08;22.20;99.90
4366;DHT22;2196;47.422;9.656;2022-10-16T15:11:34;22.10;99.90
4366;DHT22;2196;47.422;9.656;2022-10-16T15:14:03;22.10;99.90
4366;DHT22;2196;47.422;9.656;2022-10-16T15:16:31;22.20;99.90
4366;DHT22;2196;47.422;9.656;2022-10-16T15:18:58;22.10;99.90
4366;DHT22;2196;47.422;9.656;2022-10-16T15:21:27;22.10;99.90
4366;DHT22;2196;47.422;9.656;2022-10-16T15:23:54;22.00;99.90
4366;DHT22;2196;47.422;9.656;2022-10-16T15:26:22;22.00;99.90
4366;DHT22;2196;47.422;9.656;2022-10-16T15:28:49;21.90;99.90
4366;DHT22;2196;47.422;9.656;2022-10-16T15:31:17;21.70;99.90
4366;DHT22;2196;47.422;9.656;2022-10-16T15:33:49;21.60;99.90
4366;DHT22;2196;47.422;9.656;2022-10-16T15:36:25;21.50;99.90
4366;DHT22;2196;47.422;9.656;2022-10-16T15:38:52;21.40;99.90
4366;DHT22;2196;47.422;9.656;2022-10-16T15:41:19;21.30;99.90
4366;DHT22;2196;47.422;9.656;2022-10-16T15:43:48;21.20;99.90
4366;DHT22;2196;47.422;9.656;2022-10-16T15:46:19;21.10;99.90
4366;DHT22;2196;47.422;9.656;2022-10-16T15:48:47;21.10;99.90
4366;DHT22;2196;47.422;9.656;2022-10-16T15:51:14;21.00;99.90
4366;DHT22;2196;47.422;9.656;2022-10-16T15:53:41;21.00;99.90
4366;DHT22;2196;47.422;9.656;2022-10-16T15:56:12;20.90;99.90
4366;DHT22;2196;47.422;9.656;2022-10-16T15:58:44;20.70;99.90
4366;DHT22;2196;47.422;9.656;2022-10-16T16:01:11;20.60;99.90
4366;DHT22;2196;47.422;9.656;2022-10-16T16:03:39;20.50;99.90
4366;DHT22;2196;47.422;9.656;2022-10-16T16:06:12;20.40;99.90
4366;DHT22;2196;47.422;9.656;2022-10-16T16:08:39;20.30;99.90
4366;DHT22;2196;47.422;9.656;2022-10-16T16:11:08;20.20;99.90
4366;DHT22;2196;47.422;9.656;2022-10-16T16:13:36;20.10;99.90
4366;DHT22;2196;47.422;9.656;2022-10-16T16:16:05;20.00;99.90
4366;DHT22;2196;47.422;9.656;2022-10-16T16:18:33;19.90;99.90
4366;DHT22;2196;47.422;9.656;2022-10-16T16:21:02;19.90;99.90
4366;DHT22;2196;47.422;9.656;2022-10-16T16:23:29;19.80;99.90
4366;DHT22;2196;47.422;9.656;2022-10-16T16:26:04;19.80;99.90
4366;DHT22;2196;47.422;9.656;2022-10-16T16:28:31;19.70;99.90
4366;DHT22;2196;47.422;9.656;2022-10-16T16:30:58;19.70;99.90